Terminal Aerodrome Forecast
Issued by NWS Charleston, SC

Home | Current Version | Previous Version | Text Only | Print | Product List | Glossary On
Versions: 1 2 3 4 5 6 7 8 9 10 11 12 13 14 15 16 17 18 19 20 21 22 23 24 25 26 27 28 29 30
000
FTUS42 KCHS 012000 AAA
TAFCHS
TAF AMD
KCHS 012026Z 0120/0218 14006KT P6SM SCT020 BKN035
     FM020600 VRB04KT P6SM VCSH SCT020 BKN035
     FM021500 12005KT P6SM SHRA VCTS SCT020 BKN035CB=

USA.gov is the U.S. government's official web portal to all federal, state and local government web resources and services.